Time;durP1;ratioP1;P1;durP2;ratioP2;P2;SDS_P1;SDS_P2;PMS_P1;PMS_P2;Temp;Humidity;BMP_temperature;BMP_pressure;BME280_temperature;BME280_humidity;BME280_pressure;Samples;Min_cycle;Max_cycle;Signal;HPM_P1;HPM_P2
2023/10/16 00:00:45;;;;;;;2.60;1.70;;;;;;;12.69;78.21;94517.72;5091528;28;20200;-43
2023/10/16 00:03:14;;;;;;;3.17;1.80;;;;;;;12.73;77.50;94530.09;5075478;28;20198;-42
2023/10/16 00:05:49;;;;;;;1.60;1.50;;;;;;;12.66;77.85;94523.97;5071643;28;20198;-42
2023/10/16 00:08:16;;;;;;;1.67;1.57;;;;;;;12.63;77.69;94523.47;5072579;28;20220;-44
2023/10/16 00:10:43;;;;;;;1.73;1.63;;;;;;;12.65;77.77;94529.25;5071554;28;20214;-44
2023/10/16 00:13:11;;;;;;;2.93;1.60;;;;;;;12.60;77.60;94539.19;5071267;28;20198;-43
2023/10/16 00:15:44;;;;;;;1.97;1.77;;;;;;;12.63;76.90;94541.44;5071130;28;20273;-43
2023/10/16 00:18:17;;;;;;;2.10;1.30;;;;;;;12.50;77.32;94547.78;5071335;28;20281;-44
2023/10/16 00:20:45;;;;;;;1.90;1.80;;;;;;;12.53;76.90;94546.69;5075510;28;20189;-43
2023/10/16 00:23:12;;;;;;;1.40;1.40;;;;;;;12.45;76.98;94556.91;5091473;28;20182;-42
2023/10/16 00:25:39;;;;;;;1.53;1.47;;;;;;;12.33;77.38;94540.16;5091212;28;20186;-43
2023/10/16 00:28:07;;;;;;;2.13;1.57;;;;;;;12.38;77.31;94554.13;5091603;28;20267;-47
2023/10/16 00:30:37;;;;;;;1.77;1.67;;;;;;;12.30;77.69;94557.47;5083088;28;20182;-44
2023/10/16 00:33:10;;;;;;;1.60;1.50;;;;;;;12.35;77.56;94571.56;5072138;28;20210;-42
2023/10/16 00:35:37;;;;;;;2.30;1.77;;;;;;;12.38;77.38;94576.41;5070599;28;20191;-45
2023/10/16 00:38:05;;;;;;;1.53;1.43;;;;;;;12.28;77.21;94585.00;5071047;28;20202;-42
2023/10/16 00:40:35;;;;;;;1.40;1.40;;;;;;;12.29;77.52;94596.06;5070609;28;20193;-43
2023/10/16 00:43:11;;;;;;;1.60;1.50;;;;;;;12.26;77.56;94592.06;5070970;28;20364;-44
2023/10/16 00:45:48;;;;;;;1.87;1.77;;;;;;;12.23;77.49;94604.38;5070782;28;20189;-44
2023/10/16 00:48:18;;;;;;;1.47;1.47;;;;;;;12.21;77.72;94607.06;5070363;28;20323;-44
2023/10/16 00:50:48;;;;;;;1.90;1.80;;;;;;;12.21;77.45;94593.47;5079241;28;20243;-43
2023/10/16 00:53:20;;;;;;;1.70;1.60;;;;;;;12.26;77.38;94602.31;5090804;28;20274;-43
2023/10/16 00:55:48;;;;;;;2.07;1.97;;;;;;;12.32;76.77;94585.53;5090410;28;20192;-43
2023/10/16 00:58:15;;;;;;;1.90;1.80;;;;;;;12.26;76.39;94583.53;5091213;28;20553;-42
2023/10/16 01:00:47;;;;;;;2.30;2.20;;;;;;;12.30;76.22;94600.25;5090588;28;20193;-44
2023/10/16 01:03:16;;;;;;;2.20;2.10;;;;;;;12.24;76.24;94593.97;5091056;28;20186;-44
2023/10/16 01:05:43;;;;;;;3.00;2.40;;;;;;;12.28;76.17;94608.09;5090377;28;20546;-43
2023/10/16 01:08:11;;;;;;;5.00;2.50;;;;;;;12.20;76.13;94597.78;5090521;28;20774;-44
2023/10/16 01:10:40;;;;;;;2.67;2.43;;;;;;;12.22;76.38;94618.16;5090294;28;20190;-43
2023/10/16 01:13:12;;;;;;;5.87;2.67;;;;;;;12.18;76.43;94630.47;5081258;28;20205;-42
2023/10/16 01:15:43;;;;;;;3.00;2.80;;;;;;;12.16;76.77;94614.41;5070209;28;20190;-42
2023/10/16 01:18:13;;;;;;;2.90;2.70;;;;;;;12.14;76.57;94621.47;5070246;28;20658;-42
2023/10/16 01:20:46;;;;;;;2.80;2.60;;;;;;;12.06;77.18;94618.84;5070057;28;20194;-44
2023/10/16 01:23:19;;;;;;;3.13;2.93;;;;;;;11.99;77.19;94625.50;5070166;28;20302;-43
2023/10/16 01:25:48;;;;;;;3.77;3.47;;;;;;;11.94;77.56;94620.81;5074683;28;20251;-44
2023/10/16 01:28:15;;;;;;;3.30;3.10;;;;;;;11.92;77.65;94632.19;5078230;28;20210;-43
2023/10/16 01:30:43;;;;;;;4.33;3.27;;;;;;;11.88;78.03;94628.31;5090398;28;20190;-42
2023/10/16 01:33:10;;;;;;;3.83;3.53;;;;;;;11.81;78.37;94621.16;5090734;28;20186;-43
2023/10/16 01:35:37;;;;;;;3.70;3.40;;;;;;;11.84;78.27;94634.66;5090633;28;20197;-43
2023/10/16 01:38:14;;;;;;;4.37;3.77;;;;;;;11.82;78.31;94645.00;5090596;28;20198;-44
2023/10/16 01:40:47;;;;;;;4.00;3.70;;;;;;;11.74;78.39;94644.94;5090626;28;20189;-43
2023/10/16 01:43:14;;;;;;;4.07;3.77;;;;;;;11.82;78.41;94668.06;5090488;28;20197;-43
2023/10/16 01:45:50;;;;;;;4.23;3.90;;;;;;;11.81;78.54;94656.22;5090504;28;20182;-44
2023/10/16 01:48:19;;;;;;;6.57;4.20;;;;;;;11.79;78.78;94653.81;5089441;28;20233;-43
2023/10/16 01:50:49;;;;;;;4.70;4.37;;;;;;;11.71;79.28;94658.84;5077804;28;20259;-43
2023/10/16 01:53:20;;;;;;;5.90;5.07;;;;;;;11.64;79.57;94662.13;5069370;28;20246;-42
2023/10/16 01:55:54;;;;;;;5.63;5.10;;;;;;;11.64;80.38;94669.81;5069419;28;20554;-43
2023/10/16 01:58:22;;;;;;;6.13;5.67;;;;;;;11.52;80.67;94676.91;5069767;28;20202;-43
2023/10/16 02:00:49;;;;;;;6.03;5.40;;;;;;;11.49;80.33;94677.19;5075601;28;20649;-43
2023/10/16 02:03:17;;;;;;;5.13;4.73;;;;;;;11.54;81.09;94695.50;5090262;28;20189;-43
2023/10/16 02:05:45;;;;;;;5.70;5.17;;;;;;;11.47;81.01;94707.25;5089391;28;20190;-43
2023/10/16 02:08:13;;;;;;;6.23;5.63;;;;;;;11.42;81.17;94712.81;5089980;28;20249;-44
2023/10/16 02:10:41;;;;;;;5.57;5.03;;;;;;;11.34;81.16;94693.97;5090357;28;20188;-43
2023/10/16 02:13:09;;;;;;;4.70;4.20;;;;;;;11.40;80.91;94701.06;5072068;28;20186;-44
2023/10/16 02:15:37;;;;;;;5.57;4.20;;;;;;;11.43;79.32;94696.47;5091626;28;20193;-44
2023/10/16 02:18:05;;;;;;;4.57;4.17;;;;;;;11.43;78.91;94711.03;5102279;28;20667;-42
2023/10/16 02:20:36;;;;;;;4.80;4.40;;;;;;;11.46;78.01;94713.31;5088722;28;20565;-44
2023/10/16 02:23:06;;;;;;;4.73;4.00;;;;;;;11.44;76.13;94712.66;5078799;28;20255;-44
2023/10/16 02:25:34;;;;;;;5.13;4.57;;;;;;;11.48;75.38;94701.97;5070085;28;20196;-44
2023/10/16 02:28:02;;;;;;;4.33;4.03;;;;;;;11.45;75.75;94706.59;5088471;28;20296;-43
2023/10/16 02:30:35;;;;;;;4.77;4.30;;;;;;;11.35;75.22;94693.81;5089756;28;20243;-42
2023/10/16 02:33:12;;;;;;;4.57;4.10;;;;;;;11.51;74.41;94718.81;5089229;28;20178;-44
2023/10/16 02:35:42;;;;;;;4.80;3.50;;;;;;;11.53;74.55;94727.19;5089234;28;20665;-43
2023/10/16 02:38:12;;;;;;;4.67;4.27;;;;;;;11.48;74.54;94724.22;5088866;28;20240;-43
2023/10/16 02:40:39;;;;;;;4.10;3.70;;;;;;;11.41;74.36;94713.75;5087335;28;20217;-44
2023/10/16 02:43:13;;;;;;;7.57;4.33;;;;;;;11.46;74.58;94726.94;5069140;28;20267;-44
2023/10/16 02:45:46;;;;;;;4.40;4.00;;;;;;;11.46;74.46;94728.69;5069363;28;20304;-42
2023/10/16 02:48:16;;;;;;;4.13;3.80;;;;;;;11.47;74.12;94718.31;5068833;28;20265;-44
2023/10/16 02:50:49;;;;;;;6.63;4.40;;;;;;;11.48;74.02;94732.72;5069088;28;20202;-44
2023/10/16 02:53:17;;;;;;;7.37;4.00;;;;;;;11.48;73.66;94730.16;5068872;28;20194;-44
2023/10/16 02:55:45;;;;;;;5.60;4.37;;;;;;;11.44;73.15;94736.53;5068925;28;20425;-43
2023/10/16 02:58:12;;;;;;;4.60;4.23;;;;;;;11.47;72.89;94740.53;5069875;28;20201;-43
2023/10/16 03:00:43;;;;;;;4.77;4.37;;;;;;;11.47;73.13;94750.78;5072901;28;20214;-44
2023/10/16 03:03:11;;;;;;;3.83;3.53;;;;;;;11.40;72.90;94739.47;5072966;28;20603;-43
2023/10/16 03:05:38;;;;;;;4.40;4.00;;;;;;;11.52;72.95;94753.72;5072702;28;20202;-48
2023/10/16 03:08:08;;;;;;;4.77;3.97;;;;;;;11.58;72.74;94758.28;5072546;28;20244;-43
2023/10/16 03:10:36;;;;;;;4.93;4.10;;;;;;;11.58;72.44;94757.50;5072891;28;20190;-43
2023/10/16 03:13:06;;;;;;;5.60;4.27;;;;;;;11.54;72.07;94762.09;5072259;28;20179;-43
2023/10/16 03:15:38;;;;;;;4.70;4.30;;;;;;;11.49;72.29;94746.34;5072566;28;20645;-43
2023/10/16 03:18:10;;;;;;;4.50;4.20;;;;;;;11.53;72.42;94763.03;5071989;28;20673;-43
2023/10/16 03:20:38;;;;;;;4.80;4.20;;;;;;;11.55;71.72;94769.63;5072517;28;20609;-42
2023/10/16 03:23:07;;;;;;;4.37;4.07;;;;;;;11.54;71.84;94770.56;5072613;28;20190;-43
2023/10/16 03:28:17;;;;;;;4.43;4.03;;;;;;;11.46;71.61;94767.09;5072387;28;20305;-44
2023/10/16 03:30:44;;;;;;;4.90;4.23;;;;;;;11.32;71.79;94749.66;5077956;28;20192;-46
2023/10/16 03:33:14;;;;;;;6.80;4.13;;;;;;;11.53;71.39;94771.53;5092352;28;20202;-44
2023/10/16 03:35:45;;;;;;;4.60;4.20;;;;;;;11.05;71.11;94708.53;5092474;28;20194;-42
2023/10/16 03:38:20;;;;;;;4.43;4.03;;;;;;;11.51;71.00;94781.09;5092980;28;20201;-47
2023/10/16 03:40:50;;;;;;;5.47;4.47;;;;;;;11.47;70.95;94787.44;5080547;28;20251;-43
2023/10/16 03:43:17;;;;;;;6.27;4.00;;;;;;;11.39;71.33;94791.66;5071931;28;20696;-43
2023/10/16 03:45:44;;;;;;;5.33;4.73;;;;;;;11.38;71.49;94785.72;5072212;28;20580;-45
2023/10/16 03:48:11;;;;;;;6.00;4.80;;;;;;;11.39;71.39;94787.34;5071824;28;20237;-43
2023/10/16 03:50:39;;;;;;;4.77;4.37;;;;;;;11.36;71.34;94782.50;5072285;28;20191;-43
2023/10/16 03:53:08;;;;;;;6.17;4.97;;;;;;;11.38;71.42;94793.41;5072176;28;20216;-43
2023/10/16 03:55:46;;;;;;;5.07;4.57;;;;;;;11.34;71.15;94778.47;5083961;28;20201;-44
2023/10/16 03:58:13;;;;;;;4.63;4.23;;;;;;;11.30;71.23;94780.50;5091829;28;20653;-43
2023/10/16 04:00:50;;;;;;;4.80;4.33;;;;;;;11.14;71.37;94759.78;5089286;28;20189;-43
2023/10/16 04:03:18;;;;;;;7.20;4.70;;;;;;;11.30;70.99;94791.53;5071711;28;20618;-43
2023/10/16 04:05:48;;;;;;;7.27;4.40;;;;;;;10.81;71.00;94710.75;5071333;28;20695;-44
2023/10/16 04:08:21;;;;;;;5.23;4.73;;;;;;;11.29;70.93;94794.25;5071190;28;20210;-44
2023/10/16 04:10:48;;;;;;;5.50;4.90;;;;;;;11.30;71.13;94816.34;5071555;28;20198;-43
2023/10/16 04:13:17;;;;;;;4.70;4.23;;;;;;;11.21;70.87;94806.94;5072384;28;20186;-45
2023/10/16 04:16:09;;;;;;;4.97;4.47;;;;;;;11.23;70.59;94808.41;5071299;28;20279;-44
2023/10/16 04:18:39;;;;;;;4.93;4.53;;;;;;;11.26;70.83;94817.56;5071089;28;20234;-44
2023/10/16 04:23:55;;;;;;;4.90;4.50;;;;;;;11.21;70.45;94814.63;5008999;28;20283;-44
2023/10/16 04:26:57;;;;;;;7.03;5.00;;;;;;;11.22;70.52;94822.16;5007186;28;20765;-43
2023/10/16 04:29:25;;;;;;;4.97;4.57;;;;;;;11.29;70.51;94837.78;5008956;28;20231;-43
2023/10/16 04:32:07;;;;;;;5.20;4.70;;;;;;;11.25;70.46;94844.91;5008275;28;20201;-43
2023/10/16 04:34:34;;;;;;;4.73;4.33;;;;;;;11.24;70.16;94850.19;5008755;28;20196;-44
2023/10/16 04:45:26;;;;;;;5.10;4.70;;;;;;;11.20;69.87;94877.00;4911805;29;20294;-44
2023/10/16 04:48:06;;;;;;;6.40;4.27;;;;;;;11.17;69.90;94878.06;4896228;29;20224;-44
2023/10/16 04:50:41;;;;;;;6.13;4.20;;;;;;;11.07;70.08;94871.34;4912169;29;20199;-44
2023/10/16 04:53:09;;;;;;;4.77;4.07;;;;;;;10.92;70.38;94855.59;4911829;29;20207;-43
2023/10/16 04:55:53;;;;;;;4.50;4.10;;;;;;;11.08;70.43;94885.75;4912056;29;20207;-43
2023/10/16 05:06:49;;;;;;;4.37;3.93;;;;;;;11.05;71.04;94917.53;4892959;29;20412;-41
2023/10/16 06:15:01;;;;;;;4.37;3.17;;;;;;;11.65;65.71;95012.94;4988176;28;20287;-45
2023/10/16 06:17:29;;;;;;;7.33;3.63;;;;;;;11.81;65.02;95020.88;4988161;28;20743;-45
2023/10/16 06:19:56;;;;;;;5.40;2.93;;;;;;;11.88;64.69;95025.50;4988096;28;20208;-44
2023/10/16 06:22:23;;;;;;;4.47;3.10;;;;;;;12.05;63.62;95040.16;4987943;28;20193;-44
2023/10/16 06:24:52;;;;;;;3.03;2.80;;;;;;;12.07;62.29;95027.19;4988117;28;20720;-44
2023/10/16 06:27:20;;;;;;;6.10;2.73;;;;;;;12.17;62.36;95039.03;4987518;28;20239;-44
2023/10/16 06:29:50;;;;;;;3.53;2.70;;;;;;;12.32;62.03;95038.63;4987983;28;20775;-43
2023/10/16 06:32:19;;;;;;;7.80;3.07;;;;;;;12.54;61.47;95043.38;4988509;28;20197;-42
2023/10/16 06:34:48;;;;;;;11.13;3.40;;;;;;;12.84;60.58;95039.75;4993726;28;20197;-44
2023/10/16 06:37:17;;;;;;;4.07;3.20;;;;;;;13.33;59.00;95037.72;4997926;28;20264;-50
2023/10/16 06:39:45;;;;;;;3.30;2.47;;;;;;;13.88;57.33;95042.69;4999671;28;20214;-44
2023/10/16 06:42:17;;;;;;;6.90;2.70;;;;;;;14.05;55.76;95003.28;4997194;28;20200;-44
2023/10/16 06:44:50;;;;;;;2.60;2.40;;;;;;;14.57;54.71;95035.13;4991479;28;20248;-42
2023/10/16 06:47:17;;;;;;;6.83;2.67;;;;;;;14.75;53.93;95030.69;4974827;28;20228;-43
2023/10/16 06:49:46;;;;;;;9.87;2.70;;;;;;;14.81;53.75;95040.38;5025434;28;20249;-44
2023/10/16 06:52:17;;;;;;;4.57;2.33;;;;;;;14.79;53.82;95045.69;5052569;28;20283;-44
2023/10/16 06:54:45;;;;;;;3.97;2.73;;;;;;;14.76;53.72;95058.03;5052745;28;20281;-44
2023/10/16 06:57:12;;;;;;;3.87;2.40;;;;;;;14.52;54.05;95061.31;5052644;28;20210;-43
2023/10/16 06:59:39;;;;;;;6.87;2.80;;;;;;;14.36;54.44;95059.41;5053298;28;20179;-43
2023/10/16 07:02:08;;;;;;;4.10;2.33;;;;;;;14.33;53.41;95062.28;5052541;28;20217;-44
2023/10/16 07:04:40;;;;;;;4.07;2.60;;;;;;;14.34;53.78;95068.25;5053168;28;20199;-43
2023/10/16 07:07:14;;;;;;;3.17;2.50;;;;;;;14.37;53.66;95073.09;5052119;28;20268;-43
2023/10/16 07:09:47;;;;;;;8.50;2.50;;;;;;;14.50;53.71;95061.44;5052806;28;20217;-44
2023/10/16 07:12:16;;;;;;;6.37;2.80;;;;;;;14.86;52.93;95063.09;5052206;28;20302;-43
2023/10/16 07:14:44;;;;;;;2.50;2.30;;;;;;;15.10;51.79;95064.94;5052361;28;20675;-44
2023/10/16 07:17:13;;;;;;;2.90;2.13;;;;;;;15.37;51.68;95064.72;5052234;28;20195;-44
2023/10/16 07:19:41;;;;;;;4.83;1.97;;;;;;;15.62;50.75;95060.38;5052112;28;20274;-45
2023/10/16 07:22:10;;;;;;;2.50;2.30;;;;;;;15.90;50.31;95053.19;5052247;28;20192;-43
2023/10/16 07:24:37;;;;;;;4.23;2.30;;;;;;;16.21;49.39;95063.66;5052703;28;20190;-44
2023/10/16 07:27:12;;;;;;;4.87;2.40;;;;;;;16.34;48.10;95068.31;5052284;28;20689;-45
2023/10/16 07:29:41;;;;;;;4.53;2.20;;;;;;;16.35;47.92;95067.34;5052800;28;20667;-45
2023/10/16 07:32:08;;;;;;;7.83;2.37;;;;;;;16.47;48.03;95065.22;5052095;28;20201;-43
2023/10/16 07:34:35;;;;;;;6.17;2.60;;;;;;;16.62;47.62;95062.75;5052485;28;20187;-43
2023/10/16 07:37:01;;;;;;;8.07;2.53;;;;;;;16.82;47.16;95063.22;5053937;28;20218;-44
2023/10/16 07:39:29;;;;;;;4.03;1.90;;;;;;;16.91;46.68;95062.22;5052357;28;20183;-43
2023/10/16 07:41:55;;;;;;;5.73;2.57;;;;;;;16.92;45.61;95066.41;5052155;28;20274;-44
2023/10/16 07:44:27;;;;;;;3.73;2.53;;;;;;;16.75;45.37;95055.31;5052177;28;20198;-45
2023/10/16 07:46:54;;;;;;;3.90;1.90;;;;;;;16.56;45.95;95052.13;5054737;28;20249;-46
2023/10/16 07:49:25;;;;;;;2.63;2.07;;;;;;;16.76;45.59;95065.50;5052979;28;20218;-45
2023/10/16 07:51:52;;;;;;;3.57;2.20;;;;;;;16.73;45.98;95055.50;5056000;28;20198;-44
2023/10/16 07:54:20;;;;;;;4.27;2.20;;;;;;;16.95;45.28;95059.13;5056241;28;20195;-44
2023/10/16 07:56:50;;;;;;;3.03;2.23;;;;;;;17.10;45.71;95059.25;5057062;28;20203;-45
2023/10/16 07:59:19;;;;;;;3.03;2.00;;;;;;;17.26;44.26;95055.75;5056042;28;20206;-44
2023/10/16 08:01:49;;;;;;;4.67;2.50;;;;;;;17.33;44.73;95055.91;5052743;28;20280;-44
2023/10/16 08:04:35;;;;;;;4.37;2.13;;;;;;;17.40;43.97;95062.81;5051968;28;20222;-45
2023/10/16 08:07:05;;;;;;;2.67;2.20;;;;;;;17.34;43.56;95042.00;5052121;28;20240;-43
2023/10/16 08:12:20;;;;;;;2.80;2.37;;;;;;;17.39;44.35;95050.84;5051158;28;20220;-44
2023/10/16 08:14:51;;;;;;;7.37;2.23;;;;;;;17.41;43.42;95046.31;5051215;28;20206;-44
2023/10/16 08:17:23;;;;;;;7.30;2.17;;;;;;;17.44;42.89;95048.56;5050981;28;20324;-43
2023/10/16 08:19:54;;;;;;;10.23;2.67;;;;;;;16.98;43.21;94981.28;5051197;28;20293;-43
2023/10/16 08:22:25;;;;;;;5.73;2.50;;;;;;;17.33;42.93;95017.91;5051180;28;20203;-45
2023/10/16 08:24:59;;;;;;;2.70;2.20;;;;;;;17.48;43.16;95049.00;5051395;28;20210;-43
2023/10/16 08:30:17;;;;;;;4.70;2.40;;;;;;;16.85;43.58;94982.81;5050720;28;20219;-44
2023/10/16 08:32:55;;;;;;;3.60;2.07;;;;;;;17.21;43.34;95061.44;5050637;28;20280;-44
2023/10/16 08:35:22;;;;;;;2.80;1.90;;;;;;;16.70;42.80;94987.84;5050880;28;20658;-43
2023/10/16 08:37:56;;;;;;;4.23;2.47;;;;;;;16.97;43.31;95054.63;5050564;28;20188;-43
2023/10/16 08:40:32;;;;;;;2.40;2.20;;;;;;;16.79;43.71;95054.81;5050692;28;20281;-44
2023/10/16 08:43:02;;;;;;;6.93;2.20;;;;;;;16.76;44.06;95054.38;5050729;28;20722;-44
2023/10/16 08:45:29;;;;;;;3.07;2.00;;;;;;;16.60;43.38;95031.16;5050807;28;20277;-43
2023/10/16 08:47:58;;;;;;;4.37;2.13;;;;;;;16.58;43.53;95056.31;5050542;28;20227;-44
2023/10/16 08:50:40;;;;;;;3.03;2.40;;;;;;;16.40;42.98;95052.16;5050544;28;20276;-43
2023/10/16 08:53:09;;;;;;;4.03;2.07;;;;;;;16.26;43.46;95050.25;5050622;28;20217;-44
2023/10/16 08:55:36;;;;;;;2.93;2.07;;;;;;;16.16;43.75;95052.22;5050404;28;20198;-44
2023/10/16 08:58:05;;;;;;;3.77;1.93;;;;;;;16.07;43.84;95045.47;5050440;28;20191;-43
2023/10/16 09:00:32;;;;;;;5.73;2.10;;;;;;;16.04;43.67;95060.28;5050697;28;20643;-43
2023/10/16 09:03:04;;;;;;;7.40;2.33;;;;;;;16.00;43.89;95053.81;5050144;28;20203;-45
2023/10/16 09:05:31;;;;;;;5.13;2.23;;;;;;;15.99;44.01;95054.00;5050368;28;20195;-44
2023/10/16 09:07:58;;;;;;;8.43;2.47;;;;;;;15.94;44.17;95067.38;5050054;28;20184;-45
2023/10/16 09:10:29;;;;;;;5.33;2.27;;;;;;;16.02;43.68;95062.22;5050314;28;20323;-43
2023/10/16 09:13:13;;;;;;;4.50;2.30;;;;;;;15.99;43.78;95051.41;5049951;28;20198;-43
2023/10/16 09:15:45;;;;;;;5.27;2.33;;;;;;;15.79;43.90;95025.13;5050145;28;20276;-43
2023/10/16 09:18:14;;;;;;;4.17;2.17;;;;;;;15.90;43.72;95048.03;5050193;28;20199;-44
2023/10/16 09:20:42;;;;;;;3.33;2.07;;;;;;;15.90;43.77;95057.56;5050278;28;20199;-42
2023/10/16 09:23:13;;;;;;;2.17;1.93;;;;;;;15.91;43.98;95049.63;5050104;28;20190;-43
2023/10/16 09:25:44;;;;;;;1.87;1.77;;;;;;;15.84;44.24;95035.75;5050214;28;20191;-44
2023/10/16 09:28:18;;;;;;;2.77;1.90;;;;;;;15.99;43.45;95051.41;5049935;28;20197;-43
2023/10/16 09:30:46;;;;;;;3.63;2.13;;;;;;;15.88;43.47;95039.63;5049952;28;20721;-44
2023/10/16 09:33:16;;;;;;;2.87;2.27;;;;;;;15.87;43.67;95047.53;5049732;28;20241;-46
2023/10/16 09:35:46;;;;;;;2.20;2.00;;;;;;;15.98;43.22;95044.66;5050202;28;20190;-44
2023/10/16 09:38:18;;;;;;;2.90;2.10;;;;;;;16.03;43.31;95034.66;5049603;28;20183;-44
2023/10/16 09:40:58;;;;;;;6.63;2.27;;;;;;;16.10;43.07;95038.16;5050099;28;20183;-45
2023/10/16 09:43:27;;;;;;;2.77;2.10;;;;;;;16.12;42.94;95033.66;5049692;28;20202;-44
2023/10/16 09:48:49;;;;;;;2.20;1.90;;;;;;;16.05;42.87;95022.38;5102956;27;1333026;-45
2023/10/16 09:51:16;;;;;;;4.80;2.27;;;;;;;16.08;42.97;95018.69;5127584;28;20274;-45
2023/10/16 09:53:43;;;;;;;2.47;2.20;;;;;;;16.08;42.66;95016.91;5127748;28;20184;-45
2023/10/16 09:56:13;;;;;;;7.27;2.30;;;;;;;16.13;42.47;95024.16;5127615;28;20192;-45
2023/10/16 09:58:45;;;;;;;2.60;2.40;;;;;;;16.04;42.96;95013.84;5127683;28;20227;-45
2023/10/16 10:01:23;;;;;;;4.43;2.00;;;;;;;16.02;43.09;95018.38;5127703;28;20185;-43
2023/10/16 10:03:51;;;;;;;6.90;2.43;;;;;;;15.95;43.27;95014.81;5127767;28;20228;-45
2023/10/16 10:06:21;;;;;;;3.87;2.30;;;;;;;15.95;43.28;95017.41;5127822;28;20188;-44
2023/10/16 10:09:20;;;;;;;5.17;2.07;;;;;;;15.99;43.17;95017.88;5127769;28;20223;-44
2023/10/16 10:11:47;;;;;;;3.20;2.20;;;;;;;16.08;42.70;95016.09;5127266;28;20277;-44
2023/10/16 10:14:27;;;;;;;5.10;2.00;;;;;;;16.17;42.68;95013.34;5128427;28;20193;-49
2023/10/16 10:16:57;;;;;;;3.20;2.17;;;;;;;16.24;42.22;95001.41;5127479;28;20550;-44
2023/10/16 10:19:35;;;;;;;2.20;2.00;;;;;;;16.27;42.08;95006.22;5128187;28;20200;-44
2023/10/16 10:22:15;;;;;;;2.97;1.73;;;;;;;16.29;42.16;95003.47;5127866;28;20296;-44
2023/10/16 10:24:51;;;;;;;2.87;2.10;;;;;;;16.37;41.91;95003.47;5127866;28;20185;-44
2023/10/16 10:27:18;;;;;;;7.93;2.30;;;;;;;16.33;41.47;94991.06;5127586;28;20215;-45
2023/10/16 10:29:48;;;;;;;7.10;2.40;;;;;;;16.36;41.37;94998.44;5127693;28;20557;-43
2023/10/16 10:32:16;;;;;;;4.90;2.00;;;;;;;16.30;41.25;94984.44;5127303;28;20717;-44
2023/10/16 10:34:46;;;;;;;2.00;1.90;;;;;;;16.32;41.14;94985.09;5126907;28;20196;-44
2023/10/16 10:37:45;;;;;;;3.83;2.40;;;;;;;16.38;41.04;94987.00;5126695;28;20735;-45
2023/10/16 10:40:15;;;;;;;2.57;1.93;;;;;;;16.32;40.90;94974.78;5126810;28;20196;-44
2023/10/16 10:42:42;;;;;;;2.77;2.27;;;;;;;16.35;41.35;94976.19;5126852;28;20212;-44
2023/10/16 10:45:18;;;;;;;2.00;1.90;;;;;;;16.39;41.36;94970.53;5126901;28;20635;-45
2023/10/16 10:47:45;;;;;;;2.97;2.30;;;;;;;16.41;41.56;94966.03;5127100;28;20288;-44
2023/10/16 10:50:14;;;;;;;3.93;1.90;;;;;;;16.44;41.69;94967.44;5127087;28;20196;-46
2023/10/16 10:52:41;;;;;;;8.47;2.10;;;;;;;16.41;41.90;94954.91;5127211;28;20280;-44
2023/10/16 10:55:18;;;;;;;4.13;2.40;;;;;;;16.54;41.69;94962.91;5127032;28;20188;-43
2023/10/16 10:57:47;;;;;;;2.83;1.87;;;;;;;16.53;39.83;94951.75;5127575;28;20208;-43
2023/10/16 11:00:25;;;;;;;2.00;1.90;;;;;;;16.53;40.62;94961.28;5113833;28;20201;-47
2023/10/16 11:03:05;;;;;;;4.70;2.10;;;;;;;16.51;40.84;94960.66;5122920;28;20636;-44
2023/10/16 11:05:33;;;;;;;3.10;1.97;;;;;;;16.56;40.88;94961.75;5119371;28;20197;-44
2023/10/16 11:08:25;;;;;;;3.40;2.10;;;;;;;16.43;40.93;94927.13;5112562;28;20223;-44
2023/10/16 11:10:53;;;;;;;2.00;1.80;;;;;;;16.68;40.35;94957.03;5113018;28;20196;-45
2023/10/16 11:13:21;;;;;;;3.43;2.10;;;;;;;16.65;40.71;94956.56;5112085;28;20189;-46
2023/10/16 11:15:53;;;;;;;2.63;1.90;;;;;;;16.48;40.89;94930.00;5112704;28;20193;-44
2023/10/16 11:18:22;;;;;;;4.60;1.73;;;;;;;16.72;40.26;94944.59;5112550;28;20193;-44
2023/10/16 11:20:54;;;;;;;2.00;1.90;;;;;;;16.63;40.31;94932.69;5112662;28;20200;-43
2023/10/16 11:23:25;;;;;;;2.20;1.93;;;;;;;16.65;40.38;94941.88;5111998;28;20653;-44
2023/10/16 11:25:53;;;;;;;2.20;2.00;;;;;;;16.71;39.92;94943.78;5112522;28;20184;-44
2023/10/16 11:28:21;;;;;;;3.70;1.97;;;;;;;16.73;40.16;94953.97;5111780;28;20227;-43
2023/10/16 11:30:53;;;;;;;4.63;2.47;;;;;;;16.73;40.33;94941.06;5112862;28;20570;-44
2023/10/16 11:33:28;;;;;;;2.13;1.90;;;;;;;16.76;39.88;94935.56;5111898;28;20249;-45
2023/10/16 11:36:02;;;;;;;3.50;2.10;;;;;;;16.73;39.96;94933.31;5112727;28;20267;-45
2023/10/16 11:38:30;;;;;;;1.67;1.57;;;;;;;16.68;40.40;94940.75;5111859;28;20287;-44
2023/10/16 11:41:04;;;;;;;2.57;1.90;;;;;;;16.66;40.39;94938.31;5112457;28;20182;-44
2023/10/16 11:43:33;;;;;;;3.07;2.20;;;;;;;16.67;40.64;94942.53;5112288;28;20218;-45
2023/10/16 11:46:05;;;;;;;3.07;2.00;;;;;;;16.73;40.63;94931.53;5112936;28;20201;-44
2023/10/16 11:48:42;;;;;;;5.27;2.20;;;;;;;16.75;39.62;94929.59;5111607;28;20228;-44
2023/10/16 11:51:15;;;;;;;2.13;1.87;;;;;;;16.75;39.89;94932.19;5111923;28;20199;-44
2023/10/16 11:53:43;;;;;;;1.70;1.60;;;;;;;16.82;39.74;94934.88;5111572;28;20276;-43
2023/10/16 11:56:13;;;;;;;1.90;1.80;;;;;;;16.80;39.41;94927.31;5112017;28;20189;-45
2023/10/16 11:58:40;;;;;;;2.77;1.60;;;;;;;16.75;39.38;94933.94;5111311;28;20193;-45
2023/10/16 12:01:11;;;;;;;2.93;2.13;;;;;;;16.71;39.64;94927.47;5111609;28;20687;-46
2023/10/16 12:03:38;;;;;;;2.33;1.80;;;;;;;16.70;39.80;94913.75;5111370;28;20200;-44
2023/10/16 12:06:13;;;;;;;3.73;1.93;;;;;;;16.77;39.87;94922.47;5111785;28;20199;-46
2023/10/16 12:08:41;;;;;;;1.90;1.80;;;;;;;16.78;40.19;94920.69;5111166;28;20212;-44
2023/10/16 12:11:11;;;;;;;2.17;1.97;;;;;;;16.79;40.25;94920.50;5110518;28;20197;-43
2023/10/16 12:13:38;;;;;;;4.87;2.53;;;;;;;16.84;40.11;94914.03;5111281;28;20189;-46
2023/10/16 12:16:06;;;;;;;3.90;1.97;;;;;;;16.91;38.51;94920.13;5111567;28;20200;-44
2023/10/16 12:18:33;;;;;;;2.47;1.90;;;;;;;16.83;38.64;94917.59;5111167;28;20261;-44
2023/10/16 12:21:04;;;;;;;2.03;1.80;;;;;;;16.77;38.89;94913.91;5111289;28;20576;-43
2023/10/16 12:23:36;;;;;;;3.13;1.93;;;;;;;16.73;39.17;94913.44;5111049;28;20218;-45
2023/10/16 12:26:04;;;;;;;2.93;1.60;;;;;;;16.72;39.20;94905.84;5111196;28;20485;-44
2023/10/16 12:28:32;;;;;;;2.10;1.93;;;;;;;16.77;39.07;94906.97;5111486;28;20256;-45
2023/10/16 12:30:59;;;;;;;1.70;1.60;;;;;;;16.75;39.01;94908.09;5111193;28;20656;-46
2023/10/16 12:33:26;;;;;;;1.80;1.70;;;;;;;16.79;38.63;94901.63;5111100;28;20199;-44
2023/10/16 12:35:55;;;;;;;2.93;2.30;;;;;;;16.75;38.79;94900.34;5111221;28;20654;-44
2023/10/16 12:38:24;;;;;;;11.90;2.13;;;;;;;16.78;38.06;94897.44;5110818;28;20200;-45
2023/10/16 12:40:55;;;;;;;1.90;1.80;;;;;;;16.73;37.65;94892.78;5111335;28;20242;-44
2023/10/16 12:43:25;;;;;;;3.53;2.13;;;;;;;16.60;38.15;94887.34;5110964;28;20614;-47
2023/10/16 12:45:52;;;;;;;2.83;1.80;;;;;;;16.55;38.40;94882.69;5111260;28;20196;-48
2023/10/16 12:48:21;;;;;;;3.60;2.00;;;;;;;16.46;38.61;94859.69;5111316;28;20236;-44
2023/10/16 12:50:48;;;;;;;2.23;1.70;;;;;;;16.48;38.34;94849.97;5111294;28;20185;-44
2023/10/16 12:53:15;;;;;;;2.00;1.80;;;;;;;16.71;38.30;94886.97;5110808;28;20191;-44
2023/10/16 12:55:48;;;;;;;3.17;1.80;;;;;;;16.72;38.50;94867.13;5110579;28;20180;-45
2023/10/16 12:58:18;;;;;;;1.77;1.67;;;;;;;16.83;37.94;94879.66;5110156;28;20192;-44
2023/10/16 13:00:48;;;;;;;1.70;1.60;;;;;;;16.86;37.75;94876.72;5110283;28;20630;-43
2023/10/16 13:03:15;;;;;;;3.30;1.90;;;;;;;16.92;37.61;94877.81;5110358;28;20185;-44
2023/10/16 13:05:42;;;;;;;2.87;2.17;;;;;;;16.91;37.84;94864.09;5110087;28;20687;-45
2023/10/16 13:08:10;;;;;;;2.17;1.77;;;;;;;16.96;37.65;94881.66;5110466;28;20220;-43
2023/10/16 13:10:37;;;;;;;2.13;2.00;;;;;;;16.90;37.67;94879.78;5110400;28;20249;-43
2023/10/16 13:13:04;;;;;;;3.40;2.00;;;;;;;16.87;37.77;94878.34;5110145;28;20637;-44
2023/10/16 13:15:32;;;;;;;5.23;2.03;;;;;;;16.88;37.97;94879.13;5110158;28;20211;-45
2023/10/16 13:18:01;;;;;;;1.87;1.70;;;;;;;16.82;36.60;94862.56;5110312;28;20568;-45
2023/10/16 13:20:28;;;;;;;3.60;2.17;;;;;;;16.85;36.29;94875.13;5109767;28;20848;-43
2023/10/16 13:22:56;;;;;;;3.00;1.90;;;;;;;16.86;35.61;94891.44;5109743;28;20224;-45
2023/10/16 13:25:25;;;;;;;3.87;1.77;;;;;;;16.77;35.73;94868.22;5109502;28;20645;-43